createdAt,value
2023-02-22T00:05:31.560Z,44.72
2023-02-22T00:11:35.539Z,42.47
2023-02-22T00:17:37.364Z,44.55
2023-02-22T00:23:43.291Z,47.70
2023-02-22T00:29:47.121Z,38.88
2023-02-22T00:35:49.320Z,22.67
2023-02-22T00:41:51.145Z,25.90
2023-02-22T00:47:56.190Z,19.83
2023-02-22T00:53:57.958Z,19.58
2023-02-22T00:59:59.830Z,15.75
2023-02-22T01:06:02.399Z,22.67
2023-02-22T01:12:08.067Z,25.98
2023-02-22T01:18:12.612Z,27.80
2023-02-22T01:24:16.436Z,26.25
2023-02-22T01:30:22.565Z,24.17
2023-02-22T01:43:52.990Z,27.88
2023-02-22T01:49:55.009Z,32.55
2023-02-22T01:55:58.044Z,31.55
2023-02-22T02:02:00.487Z,33.10
2023-02-22T02:08:14.631Z,38.72
2023-02-22T02:14:17.976Z,38.92
2023-02-22T02:20:32.716Z,29.15
2023-02-22T02:27:14.569Z,35.88
2023-02-22T02:33:33.518Z,27.30
2023-02-22T02:40:17.828Z,35.55
2023-02-22T02:46:40.074Z,25.13
2023-02-22T02:52:42.175Z,30.15
2023-02-22T02:58:53.193Z,36.90
2023-02-22T03:05:07.295Z,37.53
2023-02-22T03:11:42.913Z,43.25
2023-02-22T03:17:56.420Z,33.15
2023-02-22T03:24:37.518Z,34.35
2023-02-22T03:30:54.812Z,32.95
2023-02-22T03:37:00.828Z,33.00
2023-02-22T03:43:16.827Z,31.00
2023-02-22T03:57:34.806Z,27.77
2023-02-22T04:03:42.288Z,28.88
2023-02-22T04:09:44.337Z,28.17
2023-02-22T04:15:46.819Z,27.90
2023-02-22T04:21:48.734Z,27.20
2023-02-22T04:27:56.551Z,32.50
2023-02-22T04:34:09.979Z,29.08
2023-02-22T04:40:16.747Z,30.15
2023-02-22T04:46:19.879Z,29.83
2023-02-22T04:52:22.446Z,32.30
2023-02-22T04:58:24.276Z,26.60
2023-02-22T05:04:26.136Z,29.02
2023-02-22T05:10:27.940Z,31.70
2023-02-22T05:16:29.819Z,35.83
2023-02-22T05:22:31.550Z,31.02
2023-02-22T05:28:33.592Z,29.45
2023-02-22T05:34:35.369Z,36.42
2023-02-22T05:40:37.089Z,33.67
2023-02-22T05:46:38.962Z,38.47
2023-02-22T05:52:40.915Z,37.90
2023-02-22T05:58:42.640Z,33.97
2023-02-22T06:04:45.645Z,44.15
2023-02-22T06:10:47.358Z,43.53
2023-02-22T06:16:53.621Z,39.40
2023-02-22T06:22:57.666Z,44.38
2023-02-22T06:28:59.436Z,38.45
2023-02-22T06:35:01.232Z,39.15
2023-02-22T06:41:02.958Z,35.28
2023-02-22T06:47:04.773Z,35.40
2023-02-22T06:53:06.588Z,41.03
2023-02-22T06:59:08.618Z,39.38
2023-02-22T07:05:13.020Z,36.92
2023-02-22T07:11:15.666Z,37.30
2023-02-22T07:17:17.464Z,36.47
2023-02-22T07:23:19.290Z,33.28
2023-02-22T07:29:22.498Z,35.70
2023-02-22T07:35:26.044Z,35.50
2023-02-22T07:41:27.835Z,36.00
2023-02-22T07:47:29.582Z,33.78
2023-02-22T07:53:33.567Z,35.83
2023-02-22T07:59:35.325Z,28.90
2023-02-22T08:05:39.147Z,30.02
2023-02-22T08:11:41.680Z,33.65
2023-02-22T08:17:43.442Z,29.10
2023-02-22T08:23:45.183Z,34.75
2023-02-22T08:29:47.969Z,30.95
2023-02-22T08:35:50.228Z,30.02
2023-02-22T08:41:52.016Z,39.22
2023-02-22T08:47:54.087Z,33.95
2023-02-22T08:53:55.896Z,33.08
2023-02-22T08:59:57.674Z,31.67
2023-02-22T09:05:59.577Z,31.77
2023-02-22T09:12:02.143Z,32.28
2023-02-22T09:18:06.205Z,27.85
2023-02-22T09:24:08.763Z,29.20
2023-02-22T09:30:25.495Z,27.33
2023-02-22T09:36:27.314Z,28.17
2023-02-22T09:42:34.495Z,25.00
2023-02-22T09:48:44.470Z,25.60
2023-02-22T09:54:51.980Z,27.55
2023-02-22T10:01:05.137Z,26.25
2023-02-22T10:07:15.835Z,25.27
2023-02-22T10:13:27.655Z,22.70
2023-02-22T10:19:44.187Z,23.90
2023-02-22T10:25:52.599Z,23.05
2023-02-22T10:31:59.926Z,24.13
2023-02-22T10:38:23.404Z,24.27
2023-02-22T10:44:25.177Z,25.95
2023-02-22T10:50:29.588Z,20.13
2023-02-22T10:56:31.364Z,19.63
2023-02-22T11:02:35.796Z,19.52
2023-02-22T11:08:38.148Z,17.73
2023-02-22T11:14:39.893Z,19.98
2023-02-22T11:20:41.779Z,19.00
2023-02-22T11:26:46.773Z,15.60
2023-02-22T11:32:54.555Z,17.40
2023-02-22T11:38:59.950Z,17.35
2023-02-22T11:45:21.541Z,15.25
2023-02-22T11:51:49.582Z,14.98
2023-02-22T11:58:08.326Z,11.52
2023-02-22T12:04:53.050Z,12.23
2023-02-22T12:11:19.462Z,12.38
2023-02-22T12:17:39.074Z,9.88
2023-02-22T12:23:55.956Z,9.30
2023-02-22T12:30:18.163Z,8.93
2023-02-22T12:36:24.914Z,9.63
2023-02-22T12:42:53.402Z,8.48
2023-02-22T12:55:25.270Z,7.32
2023-02-22T13:01:40.401Z,9.98
2023-02-22T13:08:02.464Z,8.32
2023-02-22T13:14:41.416Z,8.10
2023-02-22T13:20:51.270Z,8.73
2023-02-22T13:27:01.770Z,7.38
2023-02-22T13:33:28.720Z,9.50
2023-02-22T13:39:45.973Z,7.20
2023-02-22T13:46:00.167Z,10.43
2023-02-22T13:52:07.138Z,9.70
2023-02-22T13:58:12.247Z,8.40
2023-02-22T14:04:37.105Z,8.27
2023-02-22T14:10:45.330Z,8.57
2023-02-22T14:17:19.215Z,8.73
2023-02-22T14:23:31.423Z,7.95
2023-02-22T14:29:33.243Z,5.82
2023-02-22T14:35:49.952Z,9.85
2023-02-22T14:42:06.476Z,7.63
2023-02-22T14:48:16.244Z,9.82
2023-02-22T14:54:39.858Z,8.30
2023-02-22T15:00:45.869Z,10.52
2023-02-22T15:06:49.413Z,7.15
2023-02-22T15:13:10.608Z,9.98
2023-02-22T15:19:12.403Z,9.57
2023-02-22T15:25:14.273Z,11.18
2023-02-22T15:31:22.701Z,7.13
2023-02-22T15:37:25.819Z,8.45
2023-02-22T15:43:28.642Z,7.88
2023-02-22T15:49:35.588Z,7.13
2023-02-22T15:55:41.591Z,9.18
2023-02-22T16:01:45.817Z,10.32
2023-02-22T16:07:50.951Z,9.25
2023-02-22T16:13:54.177Z,12.32
2023-02-22T16:19:57.283Z,13.13
2023-02-22T16:26:05.305Z,12.63
2023-02-22T16:32:07.332Z,16.50
2023-02-22T16:38:16.894Z,16.27
2023-02-22T16:44:18.963Z,15.50
2023-02-22T16:50:22.044Z,16.70
2023-02-22T16:56:30.833Z,15.40
2023-02-22T17:02:32.907Z,14.18
2023-02-22T17:08:34.657Z,14.50
2023-02-22T17:14:36.781Z,17.45
2023-02-22T17:20:38.509Z,15.85
2023-02-22T17:26:41.394Z,16.48
2023-02-22T17:32:43.654Z,21.23
2023-02-22T17:38:45.409Z,18.17
2023-02-22T17:44:47.165Z,21.98
2023-02-22T17:50:51.837Z,17.77
2023-02-22T17:56:57.918Z,19.77
2023-02-22T18:03:25.421Z,19.65
2023-02-22T18:09:28.463Z,21.20
2023-02-22T18:15:35.522Z,23.15
2023-02-22T18:21:38.739Z,26.60
2023-02-22T18:27:44.727Z,24.40
2023-02-22T18:33:49.468Z,25.42
2023-02-22T18:39:51.721Z,26.55
2023-02-22T18:45:53.891Z,28.67
2023-02-22T18:51:55.850Z,24.38
2023-02-22T18:57:57.759Z,25.33
2023-02-22T19:04:00.763Z,30.80
2023-02-22T19:10:04.025Z,33.67
2023-02-22T19:16:08.852Z,33.17
2023-02-22T19:22:15.106Z,33.47
2023-02-22T19:28:17.270Z,35.58
2023-02-22T19:34:22.074Z,33.38
2023-02-22T19:40:24.947Z,33.50
2023-02-22T19:46:26.934Z,38.45
2023-02-22T19:52:29.014Z,45.33
2023-02-22T19:58:32.526Z,42.58
2023-02-22T20:04:36.382Z,42.78
2023-02-22T20:10:40.073Z,46.45
2023-02-22T20:16:41.875Z,42.33
2023-02-22T20:22:44.774Z,43.58
2023-02-22T20:28:46.863Z,43.33
2023-02-22T20:34:48.767Z,43.72
2023-02-22T20:40:50.526Z,48.47
2023-02-22T20:46:52.345Z,46.97
2023-02-22T20:52:54.169Z,56.53
2023-02-22T20:59:01.746Z,49.08
2023-02-22T21:05:03.991Z,43.80
2023-02-22T21:11:11.558Z,44.15
2023-02-22T21:17:13.569Z,49.65
2023-02-22T21:23:16.338Z,48.83
2023-02-22T21:29:22.035Z,47.55
2023-02-22T21:35:25.360Z,45.75
2023-02-22T21:41:31.237Z,46.22
2023-02-22T21:47:37.140Z,46.13
2023-02-22T21:53:39.072Z,46.65
2023-02-22T21:59:41.306Z,46.47
2023-02-22T22:05:46.133Z,52.22
2023-02-22T22:12:06.395Z,50.47
2023-02-22T22:18:08.452Z,49.63
2023-02-22T22:24:11.024Z,55.50
2023-02-22T22:30:13.290Z,54.80
2023-02-22T22:36:16.846Z,51.90
2023-02-22T22:42:18.824Z,59.72
2023-02-22T22:48:22.710Z,56.17
2023-02-22T22:54:24.584Z,56.22
2023-02-22T23:00:30.136Z,53.30
2023-02-22T23:06:34.724Z,55.53
2023-02-22T23:12:37.300Z,51.40
2023-02-22T23:18:43.159Z,55.45
2023-02-22T23:24:45.525Z,52.42
2023-02-22T23:30:47.381Z,53.83
2023-02-22T23:36:50.463Z,54.85
2023-02-22T23:42:55.890Z,63.50
2023-02-22T23:49:01.635Z,60.67
2023-02-22T23:55:05.549Z,68.03
